createdAt,value
2022-09-14T00:05:26.040Z,13.87
2022-09-14T00:15:27.729Z,6.90
2022-09-14T00:25:30.116Z,7.10
2022-09-14T00:35:34.856Z,7.80
2022-09-14T00:45:36.504Z,8.60
2022-09-14T00:55:38.180Z,6.90
2022-09-14T01:06:04.154Z,6.20
2022-09-14T01:16:22.075Z,8.13
2022-09-14T01:26:53.933Z,8.63
2022-09-14T01:37:13.209Z,12.33
2022-09-14T01:47:36.592Z,7.30
2022-09-14T01:57:46.656Z,8.50
2022-09-14T02:07:48.441Z,10.83
2022-09-14T02:17:50.132Z,7.20
2022-09-14T02:27:52.724Z,8.90
2022-09-14T02:38:19.301Z,10.57
2022-09-14T02:48:33.460Z,11.17
2022-09-14T02:58:40.571Z,12.20
2022-09-14T03:08:43.698Z,10.20
2022-09-14T03:18:45.416Z,11.40
2022-09-14T03:28:51.238Z,13.20
2022-09-14T03:38:54.520Z,12.20
2022-09-14T03:48:56.267Z,14.23
2022-09-14T03:58:57.942Z,13.17
2022-09-14T04:08:59.997Z,13.80
2022-09-14T04:19:01.837Z,14.13
2022-09-14T04:29:03.702Z,13.33
2022-09-14T04:39:05.385Z,14.37
2022-09-14T04:49:07.099Z,12.60
2022-09-14T04:59:09.102Z,14.13
2022-09-14T05:09:14.185Z,11.93
2022-09-14T05:19:18.265Z,15.87
2022-09-14T05:29:19.972Z,12.77
2022-09-14T05:39:23.416Z,12.97
2022-09-14T05:49:25.412Z,14.60
2022-09-14T05:59:27.172Z,14.70
2022-09-14T06:09:33.050Z,14.93
2022-09-14T06:19:34.978Z,15.63
2022-09-14T06:29:36.696Z,12.43
2022-09-14T06:39:38.536Z,14.67
2022-09-14T06:49:40.131Z,14.07
2022-09-14T06:59:41.725Z,12.77
2022-09-14T07:09:43.408Z,13.53
2022-09-14T07:19:45.063Z,14.27
2022-09-14T07:29:47.403Z,13.23
2022-09-14T07:39:49.152Z,12.20
2022-09-14T07:49:50.755Z,12.77
2022-09-14T07:59:52.443Z,13.07
2022-09-14T08:09:54.099Z,16.60
2022-09-14T08:19:55.829Z,17.73
2022-09-14T08:29:57.466Z,14.37
2022-09-14T08:39:59.396Z,12.00
2022-09-14T08:50:12.930Z,13.80
2022-09-14T09:00:17.748Z,6.27
2022-09-14T09:10:20.564Z,7.23
2022-09-14T09:20:27.813Z,6.47
2022-09-14T09:30:30.197Z,5.07
2022-09-14T09:40:37.691Z,5.63
2022-09-14T09:50:49.081Z,4.60
2022-09-14T10:01:12.034Z,3.90
2022-09-14T10:11:30.646Z,5.57
2022-09-14T10:21:32.371Z,3.90
2022-09-14T10:31:44.616Z,7.17
2022-09-14T10:42:14.230Z,8.07
2022-09-14T10:52:34.355Z,3.07
2022-09-14T11:03:14.611Z,3.10
2022-09-14T11:13:34.388Z,4.93
2022-09-14T11:23:46.208Z,5.30
2022-09-14T11:34:00.754Z,4.50
2022-09-14T11:44:10.671Z,9.00
2022-09-14T11:54:18.845Z,5.87
2022-09-14T12:04:20.582Z,5.87
2022-09-14T12:14:28.610Z,5.77
2022-09-14T12:24:30.897Z,6.00
2022-09-14T12:34:33.654Z,6.80
2022-09-14T12:44:38.675Z,10.20
2022-09-14T12:55:09.085Z,8.80
2022-09-14T13:05:17.277Z,9.60
2022-09-14T13:15:22.029Z,6.57
2022-09-14T13:25:32.860Z,12.73
2022-09-14T13:35:50.602Z,13.60
2022-09-14T13:45:52.722Z,9.30
2022-09-14T13:55:54.370Z,14.70
2022-09-14T14:05:56.846Z,6.47
2022-09-14T14:16:19.971Z,12.20
2022-09-14T14:26:27.233Z,13.20
2022-09-14T14:36:28.838Z,14.37
2022-09-14T14:46:30.542Z,12.07
2022-09-14T14:56:32.316Z,9.03
2022-09-14T15:06:34.000Z,9.77
2022-09-14T15:16:35.761Z,4.77
2022-09-14T15:26:38.089Z,8.63
2022-09-14T15:36:53.528Z,6.00
2022-09-14T15:46:56.161Z,3.73
2022-09-14T15:57:00.058Z,11.93
2022-09-14T16:07:01.933Z,22.73
2022-09-14T16:17:05.114Z,3.50
2022-09-14T16:27:06.852Z,3.23
2022-09-14T16:37:08.715Z,5.23
2022-09-14T16:47:10.360Z,3.83
2022-09-14T16:57:11.990Z,4.23
2022-09-14T17:07:13.622Z,3.23
2022-09-14T17:17:15.885Z,4.40
2022-09-14T17:27:18.818Z,6.13
2022-09-14T17:37:20.757Z,5.17
2022-09-14T17:47:22.441Z,7.70
2022-09-14T17:57:24.319Z,4.60
2022-09-14T18:07:26.942Z,5.80
2022-09-14T18:17:28.636Z,3.30
2022-09-14T18:27:31.420Z,7.70
2022-09-14T18:37:33.133Z,2.70
2022-09-14T18:47:34.775Z,5.63
2022-09-14T18:57:36.400Z,3.13
2022-09-14T19:07:38.154Z,6.63
2022-09-14T19:17:39.797Z,5.03
2022-09-14T19:27:41.514Z,3.40
2022-09-14T19:37:43.164Z,7.53
2022-09-14T19:47:44.855Z,7.60
2022-09-14T19:57:48.190Z,7.90
2022-09-14T20:07:49.806Z,4.83
2022-09-14T20:17:54.029Z,4.50
2022-09-14T20:27:55.671Z,9.93
2022-09-14T20:37:57.541Z,4.50
2022-09-14T20:47:59.226Z,5.20
2022-09-14T20:58:01.337Z,4.87
2022-09-14T21:08:03.850Z,4.20
2022-09-14T21:18:05.460Z,2.90
2022-09-14T21:28:07.071Z,7.03
2022-09-14T21:38:09.233Z,7.50
2022-09-14T21:48:10.840Z,4.40
2022-09-14T21:58:12.436Z,3.50
2022-09-14T22:08:14.025Z,2.37
2022-09-14T22:18:15.635Z,2.40
2022-09-14T22:28:17.298Z,3.57
2022-09-14T22:38:23.225Z,5.37
2022-09-14T22:48:25.138Z,3.80
2022-09-14T22:58:27.859Z,3.63
2022-09-14T23:08:30.059Z,4.77
2022-09-14T23:18:31.667Z,2.63
2022-09-14T23:28:34.966Z,4.00
2022-09-14T23:38:36.548Z,2.73
2022-09-14T23:48:38.311Z,4.30
2022-09-14T23:58:41.755Z,5.27
